• Join FlightAware (Why Join?)
  • Login
  • US Flag 
11:25AM EDT


 

Airport Tracker/Info


-or-


 

Live Flight TrackerFlight Track Log ✈ EJA831 ✈ 23-Apr-2013 ✈ KEYF - KEQY

Flight Track Log - Related Links

Times and Time Zones

All times are in EDT time to prevent confusion due to time zone crossing. See the EJA831 flight status page for this flight to view local times or setup timezone preferences in your user account.

Time Position Orientation Groundspeed Altitude Reporting Facility
EDT Latitude Longitude Course Direction KTS MPH feet Rate Location/Type
02:00PM 34.6497 -78.6719 221° Southwest 236 272 3,600  Level Washington Center
02:01PM 34.6269 -78.7394 248° West 258 297 5,700 1,200 Climbing Washington Center
02:02PM 34.6097 -78.8344 258° West 271 312 6,100 180 Climbing Washington Center
02:03PM 34.6092 -78.9331 270° West 282 325 6,100 60 Level Washington Center
02:04PM 34.6106 -79.0289 271° West 289 333 6,300 1,080 Climbing Washington Center
02:05PM 34.7747 -79.0796 221° Southwest  Level FlightAware Approximate
02:05PM 34.5792 -79.1083 244° Southwest 264 304 8,300  Level Washington Center
02:06PM 34.4869 -79.2553 233° Southwest 284 327 10,900 1,380 Climbing Jacksonville Center
02:07PM 34.4311 -79.3431 232° Southwest 314 361 12,200 1,320 Climbing Jacksonville Center
02:08PM 34.4253 -79.4339 266° West 314 361 13,600 840 Climbing Jacksonville Center
02:09PM 34.4575 -79.5408 290° West 307 353 13,900 120 Climbing Jacksonville Center
02:10PM 34.4831 -79.6458 286° West 316 364 13,900  Level Jacksonville Center
02:11PM 34.5172 -79.7578 290° West 321 369 13,900  Level Jacksonville Center
02:12PM 34.5383 -79.8528 285° West 328 377 13,900  Level Jacksonville Center
02:13PM 34.5658 -79.9553 288° West 328 377 13,900 -240 Level Jacksonville Center
02:16PM 34.6297 -80.2017 288° West 309 356 13,200 -600 Descending Atlanta Center
02:17PM 34.6572 -80.2864 292° West 295 339 12,000 -1,200 Descending Atlanta Center
02:18PM 34.7114 -80.3522 315° West 266 306 10,900 -1,380 Descending Atlanta Center
02:19PM 34.7678 -80.4256 313° West 276 318 9,300 -1,260 Descending Atlanta Center
02:20PM 34.8178 -80.4867 315° West 248 285 8,400 -1,260 Descending Atlanta Center
02:21PM 34.8364 -80.5617 287° West 234 269 6,800 -1,680 Descending Atlanta Center
02:22PM 34.8261 -80.6356 260° West 227 261 5,000 -1,920 Descending Atlanta Center
02:23PM 34.8200 -80.7142 265° West 226 260 3,000 -1,260 Descending Atlanta Center
02:24PM 34.8547 -80.7686 308° West 200 230 2,500 -240 Descending Atlanta Center
02:25PM 34.9050 -80.7717 357° North 187 215 2,500  Level Atlanta Center